首页
METAR-TAF:

METAR-TAF

机场 :

列克星敦, 北卡罗来纳州, 美国

纬度: 35-46-52N, 经度: 080-18-14W, 海拔: 223米

当前天气观测

该预报发布于1小时和13分钟前的23:35 UTC
风速4节,风向
温度 22°C
湿度 88%
气压 1020 hPa
能見度: 16.1公里
天空无云

METAR: KEXX 262335Z AUTO 10004KT 10SM CLR 22/20 A3012 RMK AO2 T02150196

时间: 20:48 (00:48 UTC)


TAF: 丢失

超过4000个机场的气象观测和天气预报(METAR&TAF报告)。

可查询的气象台以黄色和红色小点在地图上表示。

将鼠标移到小点上方,可查看气象台名称。

然后点击查看天气观测和预报。

如需切换地图:点击带黑十字的绿色按钮放大地图;点击带横线的绿色按钮缩小地图;或者点击绿色箭头查看邻近地区的地图。


METAR-TAF: